sensor_id;sensor_type;location;lat;lon;timestamp;temperature;humidity
72650;SHT31;61467;50.674;4.618;2023-04-24T00:02:09;9.45;77.96
72650;SHT31;61467;50.674;4.618;2023-04-24T00:04:37;9.59;78.16
72650;SHT31;61467;50.674;4.618;2023-04-24T00:07:05;9.62;77.85
72650;SHT31;61467;50.674;4.618;2023-04-24T00:09:32;9.56;77.52
72650;SHT31;61467;50.674;4.618;2023-04-24T00:11:59;9.63;77.82
72650;SHT31;61467;50.674;4.618;2023-04-24T00:14:28;9.61;77.64
72650;SHT31;61467;50.674;4.618;2023-04-24T00:16:54;9.54;78.30
72650;SHT31;61467;50.674;4.618;2023-04-24T00:19:21;9.66;77.98
72650;SHT31;61467;50.674;4.618;2023-04-24T00:21:50;9.38;78.49
72650;SHT31;61467;50.674;4.618;2023-04-24T00:24:17;9.45;78.60
72650;SHT31;61467;50.674;4.618;2023-04-24T00:26:44;9.58;78.11
72650;SHT31;61467;50.674;4.618;2023-04-24T00:29:10;9.68;77.38
72650;SHT31;61467;50.674;4.618;2023-04-24T00:31:37;9.54;77.77
72650;SHT31;61467;50.674;4.618;2023-04-24T00:34:04;9.49;78.10
72650;SHT31;61467;50.674;4.618;2023-04-24T00:36:31;9.55;77.53
72650;SHT31;61467;50.674;4.618;2023-04-24T00:39:02;9.59;77.56
72650;SHT31;61467;50.674;4.618;2023-04-24T00:41:29;9.73;77.25
72650;SHT31;61467;50.674;4.618;2023-04-24T00:43:56;9.72;77.21
72650;SHT31;61467;50.674;4.618;2023-04-24T00:46:23;9.68;77.24
72650;SHT31;61467;50.674;4.618;2023-04-24T00:48:50;9.75;77.34
72650;SHT31;61467;50.674;4.618;2023-04-24T00:51:17;9.54;77.90
72650;SHT31;61467;50.674;4.618;2023-04-24T00:53:44;9.41;78.23
72650;SHT31;61467;50.674;4.618;2023-04-24T00:56:12;9.36;78.28
72650;SHT31;61467;50.674;4.618;2023-04-24T00:58:39;9.42;78.18
72650;SHT31;61467;50.674;4.618;2023-04-24T01:01:07;9.56;77.96
72650;SHT31;61467;50.674;4.618;2023-04-24T01:03:34;9.48;77.84
72650;SHT31;61467;50.674;4.618;2023-04-24T01:06:02;9.62;77.37
72650;SHT31;61467;50.674;4.618;2023-04-24T01:08:30;9.52;78.01
72650;SHT31;61467;50.674;4.618;2023-04-24T01:10:57;9.79;76.80
72650;SHT31;61467;50.674;4.618;2023-04-24T01:13:25;9.72;77.26
72650;SHT31;61467;50.674;4.618;2023-04-24T01:15:52;9.45;78.06
72650;SHT31;61467;50.674;4.618;2023-04-24T01:18:19;9.35;78.70
72650;SHT31;61467;50.674;4.618;2023-04-24T01:20:49;9.51;78.15
72650;SHT31;61467;50.674;4.618;2023-04-24T01:23:19;9.38;78.48
72650;SHT31;61467;50.674;4.618;2023-04-24T01:25:46;9.17;78.67
72650;SHT31;61467;50.674;4.618;2023-04-24T01:28:13;9.03;79.03
72650;SHT31;61467;50.674;4.618;2023-04-24T01:30:40;9.25;79.22
72650;SHT31;61467;50.674;4.618;2023-04-24T01:33:08;9.17;79.00
72650;SHT31;61467;50.674;4.618;2023-04-24T01:35:35;8.94;79.52
72650;SHT31;61467;50.674;4.618;2023-04-24T01:38:03;9.20;79.17
72650;SHT31;61467;50.674;4.618;2023-04-24T01:40:31;9.17;79.28
72650;SHT31;61467;50.674;4.618;2023-04-24T01:42:58;9.10;80.15
72650;SHT31;61467;50.674;4.618;2023-04-24T01:45:25;9.11;80.17
72650;SHT31;61467;50.674;4.618;2023-04-24T01:47:52;9.20;80.01
72650;SHT31;61467;50.674;4.618;2023-04-24T01:50:20;9.23;80.25
72650;SHT31;61467;50.674;4.618;2023-04-24T01:52:47;9.20;81.10
72650;SHT31;61467;50.674;4.618;2023-04-24T01:55:14;9.21;81.31
72650;SHT31;61467;50.674;4.618;2023-04-24T01:57:42;9.18;81.01
72650;SHT31;61467;50.674;4.618;2023-04-24T02:00:10;9.25;80.96
72650;SHT31;61467;50.674;4.618;2023-04-24T02:02:38;9.24;81.38
72650;SHT31;61467;50.674;4.618;2023-04-24T02:05:06;9.20;81.59
72650;SHT31;61467;50.674;4.618;2023-04-24T02:07:33;8.86;82.36
72650;SHT31;61467;50.674;4.618;2023-04-24T02:10:00;9.13;81.66
72650;SHT31;61467;50.674;4.618;2023-04-24T02:12:27;8.94;82.24
72650;SHT31;61467;50.674;4.618;2023-04-24T02:14:55;8.84;82.64
72650;SHT31;61467;50.674;4.618;2023-04-24T02:17:22;8.94;82.75
72650;SHT31;61467;50.674;4.618;2023-04-24T02:19:48;8.99;82.10
72650;SHT31;61467;50.674;4.618;2023-04-24T02:22:15;8.96;82.09
72650;SHT31;61467;50.674;4.618;2023-04-24T02:24:42;9.08;82.09
72650;SHT31;61467;50.674;4.618;2023-04-24T02:27:09;9.13;81.99
72650;SHT31;61467;50.674;4.618;2023-04-24T02:29:36;8.97;82.32
72650;SHT31;61467;50.674;4.618;2023-04-24T02:32:05;9.01;82.41
72650;SHT31;61467;50.674;4.618;2023-04-24T02:34:32;8.91;82.85
72650;SHT31;61467;50.674;4.618;2023-04-24T02:36:58;8.91;83.01
72650;SHT31;61467;50.674;4.618;2023-04-24T02:39:25;8.88;82.88
72650;SHT31;61467;50.674;4.618;2023-04-24T02:41:52;8.99;82.74
72650;SHT31;61467;50.674;4.618;2023-04-24T02:44:19;8.91;82.60
72650;SHT31;61467;50.674;4.618;2023-04-24T02:46:48;9.01;83.05
72650;SHT31;61467;50.674;4.618;2023-04-24T02:49:16;8.94;83.02
72650;SHT31;61467;50.674;4.618;2023-04-24T02:51:44;8.74;83.90
72650;SHT31;61467;50.674;4.618;2023-04-24T02:54:11;8.57;84.33
72650;SHT31;61467;50.674;4.618;2023-04-24T02:56:38;8.55;84.79
72650;SHT31;61467;50.674;4.618;2023-04-24T02:59:05;8.49;84.98
72650;SHT31;61467;50.674;4.618;2023-04-24T03:01:32;8.63;84.33
72650;SHT31;61467;50.674;4.618;2023-04-24T03:03:58;8.62;84.50
72650;SHT31;61467;50.674;4.618;2023-04-24T03:06:27;8.69;84.06
72650;SHT31;61467;50.674;4.618;2023-04-24T03:08:53;8.62;84.22
72650;SHT31;61467;50.674;4.618;2023-04-24T03:11:20;8.73;83.95
72650;SHT31;61467;50.674;4.618;2023-04-24T03:13:49;8.66;84.07
72650;SHT31;61467;50.674;4.618;2023-04-24T03:16:16;8.59;84.39
72650;SHT31;61467;50.674;4.618;2023-04-24T03:18:43;8.73;83.82
72650;SHT31;61467;50.674;4.618;2023-04-24T03:21:10;8.46;84.37
72650;SHT31;61467;50.674;4.618;2023-04-24T03:23:38;8.43;84.72
72650;SHT31;61467;50.674;4.618;2023-04-24T03:26:05;8.60;84.43
72650;SHT31;61467;50.674;4.618;2023-04-24T03:28:31;8.77;83.88
72650;SHT31;61467;50.674;4.618;2023-04-24T03:30:58;8.70;84.41
72650;SHT31;61467;50.674;4.618;2023-04-24T03:33:25;8.67;83.89
72650;SHT31;61467;50.674;4.618;2023-04-24T03:35:52;8.63;83.82
72650;SHT31;61467;50.674;4.618;2023-04-24T03:38:19;8.79;83.56
72650;SHT31;61467;50.674;4.618;2023-04-24T03:40:47;8.74;83.65
72650;SHT31;61467;50.674;4.618;2023-04-24T03:43:14;8.69;83.65
72650;SHT31;61467;50.674;4.618;2023-04-24T03:45:41;8.59;84.26
72650;SHT31;61467;50.674;4.618;2023-04-24T03:48:07;8.55;83.88
72650;SHT31;61467;50.674;4.618;2023-04-24T03:50:34;8.46;84.11
72650;SHT31;61467;50.674;4.618;2023-04-24T03:53:03;8.36;84.84
72650;SHT31;61467;50.674;4.618;2023-04-24T03:55:30;8.57;83.89
72650;SHT31;61467;50.674;4.618;2023-04-24T03:57:58;8.38;84.92
72650;SHT31;61467;50.674;4.618;2023-04-24T04:00:25;8.49;84.58
72650;SHT31;61467;50.674;4.618;2023-04-24T04:02:52;8.42;84.60
72650;SHT31;61467;50.674;4.618;2023-04-24T04:05:18;8.49;84.35
72650;SHT31;61467;50.674;4.618;2023-04-24T04:07:45;8.56;84.79
72650;SHT31;61467;50.674;4.618;2023-04-24T04:10:12;8.34;85.23
72650;SHT31;61467;50.674;4.618;2023-04-24T04:12:39;8.60;85.40
72650;SHT31;61467;50.674;4.618;2023-04-24T04:15:08;8.41;85.07
72650;SHT31;61467;50.674;4.618;2023-04-24T04:17:35;8.43;85.32
72650;SHT31;61467;50.674;4.618;2023-04-24T04:20:03;8.34;85.76
72650;SHT31;61467;50.674;4.618;2023-04-24T04:22:34;8.42;86.03
72650;SHT31;61467;50.674;4.618;2023-04-24T04:25:01;8.49;86.01
72650;SHT31;61467;50.674;4.618;2023-04-24T04:27:28;8.36;86.07
72650;SHT31;61467;50.674;4.618;2023-04-24T04:29:57;8.36;86.27
72650;SHT31;61467;50.674;4.618;2023-04-24T04:32:26;8.34;86.09
72650;SHT31;61467;50.674;4.618;2023-04-24T04:34:53;8.46;85.67
72650;SHT31;61467;50.674;4.618;2023-04-24T04:37:20;8.55;85.73
72650;SHT31;61467;50.674;4.618;2023-04-24T04:39:47;8.43;85.77
72650;SHT31;61467;50.674;4.618;2023-04-24T04:42:13;8.66;85.62
72650;SHT31;61467;50.674;4.618;2023-04-24T04:44:40;8.38;86.13
72650;SHT31;61467;50.674;4.618;2023-04-24T04:47:08;8.70;85.76
72650;SHT31;61467;50.674;4.618;2023-04-24T04:49:37;8.83;85.25
72650;SHT31;61467;50.674;4.618;2023-04-24T04:52:04;8.86;84.89
72650;SHT31;61467;50.674;4.618;2023-04-24T04:54:34;8.67;85.09
72650;SHT31;61467;50.674;4.618;2023-04-24T04:57:03;8.72;85.16
72650;SHT31;61467;50.674;4.618;2023-04-24T04:59:30;8.74;85.46
72650;SHT31;61467;50.674;4.618;2023-04-24T05:01:57;8.66;85.37
72650;SHT31;61467;50.674;4.618;2023-04-24T05:04:24;8.63;86.27
72650;SHT31;61467;50.674;4.618;2023-04-24T05:06:53;8.83;85.13
72650;SHT31;61467;50.674;4.618;2023-04-24T05:09:21;8.63;85.78
72650;SHT31;61467;50.674;4.618;2023-04-24T05:11:48;8.66;85.83
72650;SHT31;61467;50.674;4.618;2023-04-24T05:14:15;8.67;85.57
72650;SHT31;61467;50.674;4.618;2023-04-24T05:16:43;8.79;85.00
72650;SHT31;61467;50.674;4.618;2023-04-24T05:19:10;8.46;85.23
72650;SHT31;61467;50.674;4.618;2023-04-24T05:21:38;8.50;85.72
72650;SHT31;61467;50.674;4.618;2023-04-24T05:24:07;8.65;85.63
72650;SHT31;61467;50.674;4.618;2023-04-24T05:26:34;8.63;85.09
72650;SHT31;61467;50.674;4.618;2023-04-24T05:29:02;8.62;85.06
72650;SHT31;61467;50.674;4.618;2023-04-24T05:31:29;8.52;85.22
72650;SHT31;61467;50.674;4.618;2023-04-24T05:33:56;8.38;85.20
72650;SHT31;61467;50.674;4.618;2023-04-24T05:36:23;8.67;84.93
72650;SHT31;61467;50.674;4.618;2023-04-24T05:38:49;8.77;84.79
72650;SHT31;61467;50.674;4.618;2023-04-24T05:41:18;8.79;84.04
72650;SHT31;61467;50.674;4.618;2023-04-24T05:43:44;8.65;84.33
72650;SHT31;61467;50.674;4.618;2023-04-24T05:46:11;8.83;84.10
72650;SHT31;61467;50.674;4.618;2023-04-24T05:48:40;8.57;84.08
72650;SHT31;61467;50.674;4.618;2023-04-24T05:51:06;8.63;84.12
72650;SHT31;61467;50.674;4.618;2023-04-24T05:53:33;8.45;85.32
72650;SHT31;61467;50.674;4.618;2023-04-24T05:56:00;8.46;84.84
72650;SHT31;61467;50.674;4.618;2023-04-24T05:58:28;8.59;83.82
72650;SHT31;61467;50.674;4.618;2023-04-24T06:00:55;8.72;83.92
72650;SHT31;61467;50.674;4.618;2023-04-24T06:03:24;8.81;83.25
72650;SHT31;61467;50.674;4.618;2023-04-24T06:05:51;8.74;82.87
72650;SHT31;61467;50.674;4.618;2023-04-24T06:08:17;8.65;83.65
72650;SHT31;61467;50.674;4.618;2023-04-24T06:10:44;8.81;83.70
72650;SHT31;61467;50.674;4.618;2023-04-24T06:13:11;8.70;84.08
72650;SHT31;61467;50.674;4.618;2023-04-24T06:15:41;8.53;84.21
72650;SHT31;61467;50.674;4.618;2023-04-24T06:18:08;8.70;84.16
72650;SHT31;61467;50.674;4.618;2023-04-24T06:20:36;8.74;83.70
72650;SHT31;61467;50.674;4.618;2023-04-24T06:23:03;8.62;83.55
72650;SHT31;61467;50.674;4.618;2023-04-24T06:25:30;8.45;84.26
72650;SHT31;61467;50.674;4.618;2023-04-24T06:27:57;8.39;84.26
72650;SHT31;61467;50.674;4.618;2023-04-24T06:30:24;8.45;84.09
72650;SHT31;61467;50.674;4.618;2023-04-24T06:32:52;8.46;84.16
72650;SHT31;61467;50.674;4.618;2023-04-24T06:35:19;8.55;84.14
72650;SHT31;61467;50.674;4.618;2023-04-24T06:37:45;8.41;84.43
72650;SHT31;61467;50.674;4.618;2023-04-24T06:40:12;8.21;85.34
72650;SHT31;61467;50.674;4.618;2023-04-24T06:42:39;8.39;85.13
72650;SHT31;61467;50.674;4.618;2023-04-24T06:45:08;8.49;85.06
72650;SHT31;61467;50.674;4.618;2023-04-24T06:47:35;8.39;84.68
72650;SHT31;61467;50.674;4.618;2023-04-24T06:50:04;8.32;85.08
72650;SHT31;61467;50.674;4.618;2023-04-24T06:52:31;8.46;84.96
72650;SHT31;61467;50.674;4.618;2023-04-24T06:55:00;8.21;85.04
72650;SHT31;61467;50.674;4.618;2023-04-24T06:57:28;8.31;85.53
72650;SHT31;61467;50.674;4.618;2023-04-24T06:59:55;8.32;85.04
72650;SHT31;61467;50.674;4.618;2023-04-24T07:02:22;8.42;84.95
72650;SHT31;61467;50.674;4.618;2023-04-24T07:04:49;8.60;84.70
72650;SHT31;61467;50.674;4.618;2023-04-24T07:07:18;8.65;84.82
72650;SHT31;61467;50.674;4.618;2023-04-24T07:09:46;8.66;84.38
72650;SHT31;61467;50.674;4.618;2023-04-24T07:12:13;8.80;83.57
72650;SHT31;61467;50.674;4.618;2023-04-24T07:14:42;8.70;84.12
72650;SHT31;61467;50.674;4.618;2023-04-24T07:17:09;8.66;84.42
72650;SHT31;61467;50.674;4.618;2023-04-24T07:19:38;8.72;84.52
72650;SHT31;61467;50.674;4.618;2023-04-24T07:22:05;8.83;84.43
72650;SHT31;61467;50.674;4.618;2023-04-24T07:24:33;8.86;83.72
72650;SHT31;61467;50.674;4.618;2023-04-24T07:27:00;8.94;83.55
72650;SHT31;61467;50.674;4.618;2023-04-24T07:29:27;8.88;83.60
72650;SHT31;61467;50.674;4.618;2023-04-24T07:31:54;8.76;84.12
72650;SHT31;61467;50.674;4.618;2023-04-24T07:34:21;8.74;84.02
72650;SHT31;61467;50.674;4.618;2023-04-24T07:36:48;8.74;83.97
72650;SHT31;61467;50.674;4.618;2023-04-24T07:39:15;8.94;83.62
72650;SHT31;61467;50.674;4.618;2023-04-24T07:41:46;9.18;83.27
72650;SHT31;61467;50.674;4.618;2023-04-24T07:44:13;9.35;82.61
72650;SHT31;61467;50.674;4.618;2023-04-24T07:46:40;9.31;82.43
72650;SHT31;61467;50.674;4.618;2023-04-24T07:49:07;9.14;82.94
72650;SHT31;61467;50.674;4.618;2023-04-24T07:51:33;9.11;82.35
72650;SHT31;61467;50.674;4.618;2023-04-24T07:54:03;8.93;82.52
72650;SHT31;61467;50.674;4.618;2023-04-24T07:56:31;9.04;82.99
72650;SHT31;61467;50.674;4.618;2023-04-24T07:58:59;8.90;82.76
72650;SHT31;61467;50.674;4.618;2023-04-24T08:01:27;8.93;82.51
72650;SHT31;61467;50.674;4.618;2023-04-24T08:03:54;8.84;82.63
72650;SHT31;61467;50.674;4.618;2023-04-24T08:06:21;8.70;82.69
72650;SHT31;61467;50.674;4.618;2023-04-24T08:08:49;8.77;83.13
72650;SHT31;61467;50.674;4.618;2023-04-24T08:11:18;9.01;81.77
72650;SHT31;61467;50.674;4.618;2023-04-24T08:13:45;9.08;81.65
72650;SHT31;61467;50.674;4.618;2023-04-24T08:16:13;9.14;82.18
72650;SHT31;61467;50.674;4.618;2023-04-24T08:18:40;9.27;82.26
72650;SHT31;61467;50.674;4.618;2023-04-24T08:21:08;9.51;81.76
72650;SHT31;61467;50.674;4.618;2023-04-24T08:23:34;9.52;80.74
72650;SHT31;61467;50.674;4.618;2023-04-24T08:26:01;9.41;80.34
72650;SHT31;61467;50.674;4.618;2023-04-24T08:28:28;9.20;80.45
72650;SHT31;61467;50.674;4.618;2023-04-24T08:30:55;9.07;81.00
72650;SHT31;61467;50.674;4.618;2023-04-24T08:33:24;9.23;81.21
72650;SHT31;61467;50.674;4.618;2023-04-24T08:35:51;9.24;80.35
72650;SHT31;61467;50.674;4.618;2023-04-24T08:38:18;9.46;80.25
72650;SHT31;61467;50.674;4.618;2023-04-24T08:40:44;9.42;79.74
72650;SHT31;61467;50.674;4.618;2023-04-24T08:43:15;9.51;79.40
72650;SHT31;61467;50.674;4.618;2023-04-24T08:45:42;9.90;81.15
72650;SHT31;61467;50.674;4.618;2023-04-24T08:48:09;10.10;79.63
72650;SHT31;61467;50.674;4.618;2023-04-24T08:50:38;10.18;78.52
72650;SHT31;61467;50.674;4.618;2023-04-24T08:53:07;10.12;79.19
72650;SHT31;61467;50.674;4.618;2023-04-24T08:55:35;10.33;78.58
72650;SHT31;61467;50.674;4.618;2023-04-24T08:58:03;10.51;77.10
72650;SHT31;61467;50.674;4.618;2023-04-24T09:00:31;10.58;76.88
72650;SHT31;61467;50.674;4.618;2023-04-24T09:02:59;10.91;76.20
72650;SHT31;61467;50.674;4.618;2023-04-24T09:05:27;10.91;76.74
72650;SHT31;61467;50.674;4.618;2023-04-24T09:07:56;10.95;75.05
72650;SHT31;61467;50.674;4.618;2023-04-24T09:10:24;11.02;74.04
72650;SHT31;61467;50.674;4.618;2023-04-24T09:12:52;10.88;73.99
72650;SHT31;61467;50.674;4.618;2023-04-24T09:15:19;10.74;74.44
72650;SHT31;61467;50.674;4.618;2023-04-24T09:17:47;10.76;73.06
72650;SHT31;61467;50.674;4.618;2023-04-24T09:20:13;10.61;74.26
72650;SHT31;61467;50.674;4.618;2023-04-24T09:22:41;10.69;73.66
72650;SHT31;61467;50.674;4.618;2023-04-24T09:25:10;10.76;73.04
72650;SHT31;61467;50.674;4.618;2023-04-24T09:27:42;10.95;71.21
72650;SHT31;61467;50.674;4.618;2023-04-24T09:30:10;10.89;70.42
72650;SHT31;61467;50.674;4.618;2023-04-24T09:32:37;11.16;70.91
72650;SHT31;61467;50.674;4.618;2023-04-24T09:35:06;11.01;70.67
72650;SHT31;61467;50.674;4.618;2023-04-24T09:37:35;10.33;70.55
72650;SHT31;61467;50.674;4.618;2023-04-24T09:40:16;10.51;71.12
72650;SHT31;61467;50.674;4.618;2023-04-24T09:42:44;10.43;70.66
72650;SHT31;61467;50.674;4.618;2023-04-24T09:45:12;10.78;70.02
72650;SHT31;61467;50.674;4.618;2023-04-24T09:47:39;10.69;69.75
72650;SHT31;61467;50.674;4.618;2023-04-24T09:50:10;10.82;70.22
72650;SHT31;61467;50.674;4.618;2023-04-24T09:52:40;10.76;70.24
72650;SHT31;61467;50.674;4.618;2023-04-24T09:55:12;10.95;69.72
72650;SHT31;61467;50.674;4.618;2023-04-24T09:57:47;11.13;70.08
72650;SHT31;61467;50.674;4.618;2023-04-24T10:00:18;11.12;69.91
72650;SHT31;61467;50.674;4.618;2023-04-24T10:02:50;11.25;69.03
72650;SHT31;61467;50.674;4.618;2023-04-24T10:05:17;11.12;66.69
72650;SHT31;61467;50.674;4.618;2023-04-24T10:07:44;11.32;65.79
72650;SHT31;61467;50.674;4.618;2023-04-24T10:10:13;11.39;65.17
72650;SHT31;61467;50.674;4.618;2023-04-24T10:12:40;11.56;63.44
72650;SHT31;61467;50.674;4.618;2023-04-24T10:15:09;11.74;63.13
72650;SHT31;61467;50.674;4.618;2023-04-24T10:17:39;11.87;61.31
72650;SHT31;61467;50.674;4.618;2023-04-24T10:20:06;11.49;61.45
72650;SHT31;61467;50.674;4.618;2023-04-24T10:22:33;11.43;61.71
72650;SHT31;61467;50.674;4.618;2023-04-24T10:25:03;11.54;62.95
72650;SHT31;61467;50.674;4.618;2023-04-24T10:27:32;11.47;61.87
72650;SHT31;61467;50.674;4.618;2023-04-24T10:30:00;11.40;61.59
72650;SHT31;61467;50.674;4.618;2023-04-24T10:32:28;11.11;59.66
72650;SHT31;61467;50.674;4.618;2023-04-24T10:34:55;11.16;61.17
72650;SHT31;61467;50.674;4.618;2023-04-24T10:37:23;11.16;61.17
72650;SHT31;61467;50.674;4.618;2023-04-24T10:39:50;11.43;62.67
72650;SHT31;61467;50.674;4.618;2023-04-24T10:42:20;11.42;62.77
72650;SHT31;61467;50.674;4.618;2023-04-24T10:44:48;11.33;63.00
72650;SHT31;61467;50.674;4.618;2023-04-24T10:47:16;11.20;63.27
72650;SHT31;61467;50.674;4.618;2023-04-24T10:49:43;11.19;63.91
72650;SHT31;61467;50.674;4.618;2023-04-24T10:52:10;11.18;63.04
72650;SHT31;61467;50.674;4.618;2023-04-24T10:54:42;11.23;64.33
72650;SHT31;61467;50.674;4.618;2023-04-24T10:57:26;11.73;63.33
72650;SHT31;61467;50.674;4.618;2023-04-24T11:00:18;11.60;62.22
72650;SHT31;61467;50.674;4.618;2023-04-24T11:02:46;11.93;61.12
72650;SHT31;61467;50.674;4.618;2023-04-24T11:05:19;11.83;62.27
72650;SHT31;61467;50.674;4.618;2023-04-24T11:08:11;11.73;62.51
72650;SHT31;61467;50.674;4.618;2023-04-24T11:10:44;11.50;62.11
72650;SHT31;61467;50.674;4.618;2023-04-24T11:13:14;11.66;63.92
72650;SHT31;61467;50.674;4.618;2023-04-24T11:15:44;11.47;63.18
72650;SHT31;61467;50.674;4.618;2023-04-24T11:18:14;11.47;63.92
72650;SHT31;61467;50.674;4.618;2023-04-24T11:20:43;11.12;63.49
72650;SHT31;61467;50.674;4.618;2023-04-24T11:23:12;11.42;64.56
72650;SHT31;61467;50.674;4.618;2023-04-24T11:25:41;11.29;65.56
72650;SHT31;61467;50.674;4.618;2023-04-24T11:28:14;11.30;64.79
72650;SHT31;61467;50.674;4.618;2023-04-24T11:30:43;11.16;65.15
72650;SHT31;61467;50.674;4.618;2023-04-24T11:33:10;11.37;66.44
72650;SHT31;61467;50.674;4.618;2023-04-24T11:35:40;11.56;64.98
72650;SHT31;61467;50.674;4.618;2023-04-24T11:38:07;11.52;63.03
72650;SHT31;61467;50.674;4.618;2023-04-24T11:40:34;11.60;63.65
72650;SHT31;61467;50.674;4.618;2023-04-24T11:43:01;11.43;63.76
72650;SHT31;61467;50.674;4.618;2023-04-24T11:45:28;11.69;63.96
72650;SHT31;61467;50.674;4.618;2023-04-24T11:47:57;11.30;64.71
72650;SHT31;61467;50.674;4.618;2023-04-24T11:50:25;11.43;64.88
72650;SHT31;61467;50.674;4.618;2023-04-24T11:52:53;11.22;64.91
72650;SHT31;61467;50.674;4.618;2023-04-24T11:55:27;11.13;65.47
72650;SHT31;61467;50.674;4.618;2023-04-24T11:57:58;11.25;65.88
72650;SHT31;61467;50.674;4.618;2023-04-24T12:00:26;11.20;65.40
72650;SHT31;61467;50.674;4.618;2023-04-24T12:03:05;11.20;65.58
72650;SHT31;61467;50.674;4.618;2023-04-24T12:05:32;11.44;64.25
72650;SHT31;61467;50.674;4.618;2023-04-24T12:07:59;11.85;63.62
72650;SHT31;61467;50.674;4.618;2023-04-24T12:10:28;12.31;64.09
72650;SHT31;61467;50.674;4.618;2023-04-24T12:12:56;12.29;62.01
72650;SHT31;61467;50.674;4.618;2023-04-24T12:15:24;12.45;60.76
72650;SHT31;61467;50.674;4.618;2023-04-24T12:17:52;12.93;62.74
72650;SHT31;61467;50.674;4.618;2023-04-24T12:20:26;13.14;60.04
72650;SHT31;61467;50.674;4.618;2023-04-24T12:22:54;13.54;59.50
72650;SHT31;61467;50.674;4.618;2023-04-24T12:25:22;13.72;58.84
72650;SHT31;61467;50.674;4.618;2023-04-24T12:27:53;13.58;57.28
72650;SHT31;61467;50.674;4.618;2023-04-24T12:30:21;13.27;56.88
72650;SHT31;61467;50.674;4.618;2023-04-24T12:32:49;12.99;57.41
72650;SHT31;61467;50.674;4.618;2023-04-24T12:35:20;13.08;57.57
72650;SHT31;61467;50.674;4.618;2023-04-24T12:37:48;13.30;57.57
72650;SHT31;61467;50.674;4.618;2023-04-24T12:40:16;13.62;56.62
72650;SHT31;61467;50.674;4.618;2023-04-24T12:42:45;13.86;57.49
72650;SHT31;61467;50.674;4.618;2023-04-24T12:45:13;13.93;55.85
72650;SHT31;61467;50.674;4.618;2023-04-24T12:47:41;13.58;55.97
72650;SHT31;61467;50.674;4.618;2023-04-24T12:50:08;13.21;56.87
72650;SHT31;61467;50.674;4.618;2023-04-24T12:52:37;12.89;56.74
72650;SHT31;61467;50.674;4.618;2023-04-24T12:55:06;13.02;57.43
72650;SHT31;61467;50.674;4.618;2023-04-24T12:57:37;13.44;58.76
72650;SHT31;61467;50.674;4.618;2023-04-24T13:00:05;13.04;56.90
72650;SHT31;61467;50.674;4.618;2023-04-24T13:02:33;13.18;56.62
72650;SHT31;61467;50.674;4.618;2023-04-24T13:05:00;13.31;57.73
72650;SHT31;61467;50.674;4.618;2023-04-24T13:07:27;12.70;57.66
72650;SHT31;61467;50.674;4.618;2023-04-24T13:09:56;12.38;58.34
72650;SHT31;61467;50.674;4.618;2023-04-24T13:12:24;12.24;58.92
72650;SHT31;61467;50.674;4.618;2023-04-24T13:14:52;12.28;58.46
72650;SHT31;61467;50.674;4.618;2023-04-24T13:17:19;12.14;59.63
72650;SHT31;61467;50.674;4.618;2023-04-24T13:19:46;12.04;60.10
72650;SHT31;61467;50.674;4.618;2023-04-24T13:22:12;12.05;59.73
72650;SHT31;61467;50.674;4.618;2023-04-24T13:24:39;11.97;59.98
72650;SHT31;61467;50.674;4.618;2023-04-24T13:27:07;12.35;59.74
72650;SHT31;61467;50.674;4.618;2023-04-24T13:29:36;12.46;59.96
72650;SHT31;61467;50.674;4.618;2023-04-24T13:32:04;12.28;60.70
72650;SHT31;61467;50.674;4.618;2023-04-24T13:34:32;12.35;61.24
72650;SHT31;61467;50.674;4.618;2023-04-24T13:36:59;12.69;60.04
72650;SHT31;61467;50.674;4.618;2023-04-24T13:39:26;12.55;59.96
72650;SHT31;61467;50.674;4.618;2023-04-24T13:41:53;12.80;59.40
72650;SHT31;61467;50.674;4.618;2023-04-24T13:44:21;12.67;59.58
72650;SHT31;61467;50.674;4.618;2023-04-24T13:46:52;12.49;60.49
72650;SHT31;61467;50.674;4.618;2023-04-24T13:49:22;12.21;63.18
72650;SHT31;61467;50.674;4.618;2023-04-24T13:51:51;12.18;63.84
72650;SHT31;61467;50.674;4.618;2023-04-24T13:54:18;12.21;62.96
72650;SHT31;61467;50.674;4.618;2023-04-24T13:56:45;12.05;62.77
72650;SHT31;61467;50.674;4.618;2023-04-24T13:59:15;12.28;63.41
72650;SHT31;61467;50.674;4.618;2023-04-24T14:01:41;12.05;62.86
72650;SHT31;61467;50.674;4.618;2023-04-24T14:04:11;11.80;64.43
72650;SHT31;61467;50.674;4.618;2023-04-24T14:06:38;11.75;64.22
72650;SHT31;61467;50.674;4.618;2023-04-24T14:09:05;11.73;64.31
72650;SHT31;61467;50.674;4.618;2023-04-24T14:11:33;12.15;64.14
72650;SHT31;61467;50.674;4.618;2023-04-24T14:14:00;11.84;65.67
72650;SHT31;61467;50.674;4.618;2023-04-24T14:16:28;11.78;67.48
72650;SHT31;61467;50.674;4.618;2023-04-24T14:18:55;11.95;67.37
72650;SHT31;61467;50.674;4.618;2023-04-24T14:21:24;11.87;67.40
72650;SHT31;61467;50.674;4.618;2023-04-24T14:23:51;11.83;67.24
72650;SHT31;61467;50.674;4.618;2023-04-24T14:26:17;11.99;67.73
72650;SHT31;61467;50.674;4.618;2023-04-24T14:28:44;12.06;67.61
72650;SHT31;61467;50.674;4.618;2023-04-24T14:31:11;12.04;67.35
72650;SHT31;61467;50.674;4.618;2023-04-24T14:33:38;11.73;67.93
72650;SHT31;61467;50.674;4.618;2023-04-24T14:36:05;11.67;69.00
72650;SHT31;61467;50.674;4.618;2023-04-24T14:38:34;11.87;68.79
72650;SHT31;61467;50.674;4.618;2023-04-24T14:41:02;12.06;68.70
72650;SHT31;61467;50.674;4.618;2023-04-24T14:43:34;12.04;68.66
72650;SHT31;61467;50.674;4.618;2023-04-24T14:46:01;12.11;68.34
72650;SHT31;61467;50.674;4.618;2023-04-24T14:48:28;12.06;69.18
72650;SHT31;61467;50.674;4.618;2023-04-24T14:50:55;12.06;69.42
72650;SHT31;61467;50.674;4.618;2023-04-24T14:53:22;12.06;69.60
72650;SHT31;61467;50.674;4.618;2023-04-24T14:55:50;11.93;70.06
72650;SHT31;61467;50.674;4.618;2023-04-24T14:58:17;11.78;71.40
72650;SHT31;61467;50.674;4.618;2023-04-24T15:00:44;11.99;71.22
72650;SHT31;61467;50.674;4.618;2023-04-24T15:03:11;11.97;71.89
72650;SHT31;61467;50.674;4.618;2023-04-24T15:05:37;11.69;73.24
72650;SHT31;61467;50.674;4.618;2023-04-24T15:08:04;11.78;73.03
72650;SHT31;61467;50.674;4.618;2023-04-24T15:10:31;12.25;72.50
72650;SHT31;61467;50.674;4.618;2023-04-24T15:12:59;12.18;72.04
72650;SHT31;61467;50.674;4.618;2023-04-24T15:15:26;12.26;72.36
72650;SHT31;61467;50.674;4.618;2023-04-24T15:17:53;12.70;71.56
72650;SHT31;61467;50.674;4.618;2023-04-24T15:20:20;12.82;69.37
72650;SHT31;61467;50.674;4.618;2023-04-24T15:22:47;13.00;69.14
72650;SHT31;61467;50.674;4.618;2023-04-24T15:25:14;12.90;66.63
72650;SHT31;61467;50.674;4.618;2023-04-24T15:27:42;12.46;66.95
72650;SHT31;61467;50.674;4.618;2023-04-24T15:30:11;12.42;67.72
72650;SHT31;61467;50.674;4.618;2023-04-24T15:32:38;12.55;67.82
72650;SHT31;61467;50.674;4.618;2023-04-24T15:35:06;12.41;66.87
72650;SHT31;61467;50.674;4.618;2023-04-24T15:37:33;12.18;63.84
72650;SHT31;61467;50.674;4.618;2023-04-24T15:40:00;12.32;60.52
72650;SHT31;61467;50.674;4.618;2023-04-24T15:42:29;12.01;59.71
72650;SHT31;61467;50.674;4.618;2023-04-24T15:44:56;12.01;61.90